sensor_id;sensor_type;location;lat;lon;timestamp;pressure;altitude;pressure_sealevel;temperature;humidity
77871;BME280;67067;46.850;7.578;2023-02-01T00:00:58;96264.09;;;-0.39;50.10
77871;BME280;67067;46.850;7.578;2023-02-01T00:01:59;96269.97;;;-0.36;50.01
77871;BME280;67067;46.850;7.578;2023-02-01T00:03:05;96259.75;;;-0.38;50.04
77871;BME280;67067;46.850;7.578;2023-02-01T00:04:06;96258.78;;;-0.37;50.10
77871;BME280;67067;46.850;7.578;2023-02-01T00:05:09;96256.31;;;-0.39;50.02
77871;BME280;67067;46.850;7.578;2023-02-01T00:06:10;96255.50;;;-0.39;50.03
77871;BME280;67067;46.850;7.578;2023-02-01T00:07:11;96264.78;;;-0.36;49.98
77871;BME280;67067;46.850;7.578;2023-02-01T00:08:11;96263.31;;;-0.39;49.97
77871;BME280;67067;46.850;7.578;2023-02-01T00:09:12;96260.84;;;-0.41;50.05
77871;BME280;67067;46.850;7.578;2023-02-01T00:10:12;96257.75;;;-0.44;50.15
77871;BME280;67067;46.850;7.578;2023-02-01T00:11:16;96260.38;;;-0.44;50.01
77871;BME280;67067;46.850;7.578;2023-02-01T00:12:16;96261.34;;;-0.45;50.03
77871;BME280;67067;46.850;7.578;2023-02-01T00:13:17;96262.44;;;-0.48;50.09
77871;BME280;67067;46.850;7.578;2023-02-01T00:14:18;96259.34;;;-0.52;50.07
77871;BME280;67067;46.850;7.578;2023-02-01T00:15:18;96256.72;;;-0.52;50.14
77871;BME280;67067;46.850;7.578;2023-02-01T00:16:25;96260.31;;;-0.53;50.14
77871;BME280;67067;46.850;7.578;2023-02-01T00:17:26;96257.84;;;-0.54;50.34
77871;BME280;67067;46.850;7.578;2023-02-01T00:18:26;96259.78;;;-0.56;50.36
77871;BME280;67067;46.850;7.578;2023-02-01T00:19:27;96264.16;;;-0.57;50.29
77871;BME280;67067;46.850;7.578;2023-02-01T00:20:27;96259.25;;;-0.60;50.28
77871;BME280;67067;46.850;7.578;2023-02-01T00:21:28;96259.25;;;-0.60;50.33
77871;BME280;67067;46.850;7.578;2023-02-01T00:22:28;96268.69;;;-0.59;50.36
77871;BME280;67067;46.850;7.578;2023-02-01T00:23:32;96260.91;;;-0.59;50.37
77871;BME280;67067;46.850;7.578;2023-02-01T00:24:33;96259.47;;;-0.53;50.26
77871;BME280;67067;46.850;7.578;2023-02-01T00:25:33;96258.94;;;-0.57;50.28
77871;BME280;67067;46.850;7.578;2023-02-01T00:26:36;96261.94;;;-0.52;50.28
77871;BME280;67067;46.850;7.578;2023-02-01T00:27:38;96265.22;;;-0.49;50.25
77871;BME280;67067;46.850;7.578;2023-02-01T00:28:41;96255.63;;;-0.49;50.20
77871;BME280;67067;46.850;7.578;2023-02-01T00:29:41;96260.38;;;-0.44;50.26
77871;BME280;67067;46.850;7.578;2023-02-01T00:30:42;96261.03;;;-0.42;50.24
77871;BME280;67067;46.850;7.578;2023-02-01T00:31:43;96254.34;;;-0.36;50.11
77871;BME280;67067;46.850;7.578;2023-02-01T00:32:45;96261.06;;;-0.34;50.07
77871;BME280;67067;46.850;7.578;2023-02-01T00:33:47;96257.47;;;-0.33;50.11
77871;BME280;67067;46.850;7.578;2023-02-01T00:34:51;96258.78;;;-0.29;50.00
77871;BME280;67067;46.850;7.578;2023-02-01T00:35:59;96250.47;;;-0.32;49.87
77871;BME280;67067;46.850;7.578;2023-02-01T00:37:00;96247.41;;;-0.28;50.07
77871;BME280;67067;46.850;7.578;2023-02-01T00:38:02;96252.31;;;-0.25;49.96
77871;BME280;67067;46.850;7.578;2023-02-01T00:39:05;96253.94;;;-0.24;49.94
77871;BME280;67067;46.850;7.578;2023-02-01T00:40:07;96248.38;;;-0.29;49.91
77871;BME280;67067;46.850;7.578;2023-02-01T00:41:10;96247.81;;;-0.49;50.13
77871;BME280;67067;46.850;7.578;2023-02-01T00:42:11;96238.75;;;-0.36;50.09
77871;BME280;67067;46.850;7.578;2023-02-01T00:43:11;96244.47;;;-0.33;49.98
77871;BME280;67067;46.850;7.578;2023-02-01T00:44:12;96244.16;;;-0.30;49.97
77871;BME280;67067;46.850;7.578;2023-02-01T00:45:12;96236.34;;;-0.30;49.89
77871;BME280;67067;46.850;7.578;2023-02-01T00:46:14;96240.56;;;-0.29;49.80
77871;BME280;67067;46.850;7.578;2023-02-01T00:47:16;96233.56;;;-0.28;49.68
77871;BME280;67067;46.850;7.578;2023-02-01T00:48:16;96232.13;;;-0.31;49.75
77871;BME280;67067;46.850;7.578;2023-02-01T00:49:17;96229.97;;;-0.35;49.88
77871;BME280;67067;46.850;7.578;2023-02-01T00:50:17;96233.41;;;-0.35;49.95
77871;BME280;67067;46.850;7.578;2023-02-01T00:51:20;96232.22;;;-0.41;49.96
77871;BME280;67067;46.850;7.578;2023-02-01T00:52:21;96235.66;;;-0.40;50.01
77871;BME280;67067;46.850;7.578;2023-02-01T00:53:22;96237.44;;;-0.41;49.95
77871;BME280;67067;46.850;7.578;2023-02-01T00:54:23;96233.06;;;-0.40;49.82
77871;BME280;67067;46.850;7.578;2023-02-01T00:55:23;96234.19;;;-0.43;49.98
77871;BME280;67067;46.850;7.578;2023-02-01T00:56:24;96237.56;;;-0.50;50.15
77871;BME280;67067;46.850;7.578;2023-02-01T00:57:24;96240.00;;;-0.49;50.10
77871;BME280;67067;46.850;7.578;2023-02-01T00:58:26;96236.59;;;-0.49;50.16
77871;BME280;67067;46.850;7.578;2023-02-01T00:59:29;96235.63;;;-0.48;50.01
77871;BME280;67067;46.850;7.578;2023-02-01T01:00:32;96228.63;;;-0.48;50.01
77871;BME280;67067;46.850;7.578;2023-02-01T01:01:33;96228.50;;;-0.46;49.97
77871;BME280;67067;46.850;7.578;2023-02-01T01:02:33;96227.16;;;-0.50;50.06
77871;BME280;67067;46.850;7.578;2023-02-01T01:03:40;96231.69;;;-0.53;49.90
77871;BME280;67067;46.850;7.578;2023-02-01T01:04:44;96231.00;;;-0.55;50.13
77871;BME280;67067;46.850;7.578;2023-02-01T01:05:48;96229.38;;;-0.56;50.02
77871;BME280;67067;46.850;7.578;2023-02-01T01:06:49;96228.06;;;-0.60;50.04
77871;BME280;67067;46.850;7.578;2023-02-01T01:07:49;96228.38;;;-0.63;50.00
77871;BME280;67067;46.850;7.578;2023-02-01T01:08:53;96229.50;;;-0.65;49.98
77871;BME280;67067;46.850;7.578;2023-02-01T01:09:57;96227.72;;;-0.65;50.08
77871;BME280;67067;46.850;7.578;2023-02-01T01:11:00;96220.53;;;-0.71;49.93
77871;BME280;67067;46.850;7.578;2023-02-01T01:12:08;96223.78;;;-0.69;49.98
77871;BME280;67067;46.850;7.578;2023-02-01T01:13:11;96217.94;;;-0.71;49.88
77871;BME280;67067;46.850;7.578;2023-02-01T01:14:11;96228.00;;;-0.76;50.54
77871;BME280;67067;46.850;7.578;2023-02-01T01:15:12;96230.25;;;-0.82;50.04
77871;BME280;67067;46.850;7.578;2023-02-01T01:16:13;96230.84;;;-0.88;50.17
77871;BME280;67067;46.850;7.578;2023-02-01T01:17:13;96225.13;;;-0.91;50.31
77871;BME280;67067;46.850;7.578;2023-02-01T01:18:14;96219.75;;;-0.98;50.38
77871;BME280;67067;46.850;7.578;2023-02-01T01:19:17;96219.09;;;-1.00;50.36
77871;BME280;67067;46.850;7.578;2023-02-01T01:20:20;96223.94;;;-1.05;50.42
77871;BME280;67067;46.850;7.578;2023-02-01T01:21:23;96227.66;;;-1.08;50.58
77871;BME280;67067;46.850;7.578;2023-02-01T01:22:24;96218.03;;;-1.16;50.74
77871;BME280;67067;46.850;7.578;2023-02-01T01:23:25;96227.09;;;-1.20;50.65
77871;BME280;67067;46.850;7.578;2023-02-01T01:24:25;96220.25;;;-1.21;50.69
77871;BME280;67067;46.850;7.578;2023-02-01T01:25:26;96226.72;;;-1.25;50.87
77871;BME280;67067;46.850;7.578;2023-02-01T01:26:28;96222.50;;;-1.26;50.86
77871;BME280;67067;46.850;7.578;2023-02-01T01:27:29;96224.06;;;-1.33;51.04
77871;BME280;67067;46.850;7.578;2023-02-01T01:28:29;96224.69;;;-1.40;51.11
77871;BME280;67067;46.850;7.578;2023-02-01T01:29:30;96226.97;;;-1.36;51.02
77871;BME280;67067;46.850;7.578;2023-02-01T01:30:30;96220.44;;;-1.41;51.02
77871;BME280;67067;46.850;7.578;2023-02-01T01:31:36;96222.75;;;-1.37;50.75
77871;BME280;67067;46.850;7.578;2023-02-01T01:32:39;96221.78;;;-1.36;50.86
77871;BME280;67067;46.850;7.578;2023-02-01T01:33:42;96219.94;;;-1.44;50.98
77871;BME280;67067;46.850;7.578;2023-02-01T01:34:44;96219.59;;;-1.49;51.26
77871;BME280;67067;46.850;7.578;2023-02-01T01:35:44;96212.91;;;-1.52;51.28
77871;BME280;67067;46.850;7.578;2023-02-01T01:36:45;96213.88;;;-1.53;51.21
77871;BME280;67067;46.850;7.578;2023-02-01T01:37:45;96209.78;;;-1.56;51.32
77871;BME280;67067;46.850;7.578;2023-02-01T01:38:46;96213.19;;;-1.55;51.18
77871;BME280;67067;46.850;7.578;2023-02-01T01:39:47;96214.97;;;-1.56;51.13
77871;BME280;67067;46.850;7.578;2023-02-01T01:40:47;96208.97;;;-1.56;51.16
77871;BME280;67067;46.850;7.578;2023-02-01T01:41:52;96210.59;;;-1.55;51.09
77871;BME280;67067;46.850;7.578;2023-02-01T01:42:59;96213.88;;;-1.53;51.05
77871;BME280;67067;46.850;7.578;2023-02-01T01:44:01;96211.41;;;-1.55;50.96
77871;BME280;67067;46.850;7.578;2023-02-01T01:45:06;96204.75;;;-1.57;51.09
77871;BME280;67067;46.850;7.578;2023-02-01T01:46:07;96210.44;;;-1.54;51.02
77871;BME280;67067;46.850;7.578;2023-02-01T01:47:08;96201.97;;;-1.56;50.99
77871;BME280;67067;46.850;7.578;2023-02-01T01:48:16;96201.19;;;-1.56;50.93
77871;BME280;67067;46.850;7.578;2023-02-01T01:49:21;96204.59;;;-1.56;50.83
77871;BME280;67067;46.850;7.578;2023-02-01T01:50:58;96201.84;;;-1.72;51.29
77871;BME280;67067;46.850;7.578;2023-02-01T01:52:03;96203.72;;;-1.64;51.05
77871;BME280;67067;46.850;7.578;2023-02-01T01:53:06;96197.88;;;-1.66;50.96
77871;BME280;67067;46.850;7.578;2023-02-01T01:54:20;96201.84;;;-1.72;50.98
77871;BME280;67067;46.850;7.578;2023-02-01T01:55:22;96193.63;;;-1.67;51.00
77871;BME280;67067;46.850;7.578;2023-02-01T01:56:28;96198.81;;;-1.67;51.04
77871;BME280;67067;46.850;7.578;2023-02-01T01:57:34;96201.44;;;-1.67;50.92
77871;BME280;67067;46.850;7.578;2023-02-01T01:58:37;96199.63;;;-1.67;50.76
77871;BME280;67067;46.850;7.578;2023-02-01T01:59:40;96195.56;;;-1.70;50.83
77871;BME280;67067;46.850;7.578;2023-02-01T02:00:43;96199.78;;;-1.69;51.04
77871;BME280;67067;46.850;7.578;2023-02-01T02:01:45;96191.34;;;-1.71;51.00
77871;BME280;67067;46.850;7.578;2023-02-01T02:02:47;96186.81;;;-1.69;50.88
77871;BME280;67067;46.850;7.578;2023-02-01T02:03:50;96190.38;;;-1.70;50.92
77871;BME280;67067;46.850;7.578;2023-02-01T02:04:56;96184.34;;;-1.70;51.16
77871;BME280;67067;46.850;7.578;2023-02-01T02:05:58;96185.97;;;-1.69;51.14
77871;BME280;67067;46.850;7.578;2023-02-01T02:07:04;96182.41;;;-1.68;51.13
77871;BME280;67067;46.850;7.578;2023-02-01T02:08:04;96184.88;;;-1.66;51.12
77871;BME280;67067;46.850;7.578;2023-02-01T02:09:05;96179.69;;;-1.66;51.04
77871;BME280;67067;46.850;7.578;2023-02-01T02:10:08;96173.00;;;-1.69;50.91
77871;BME280;67067;46.850;7.578;2023-02-01T02:11:12;96174.81;;;-1.70;50.92
77871;BME280;67067;46.850;7.578;2023-02-01T02:12:14;96177.53;;;-1.71;50.93
77871;BME280;67067;46.850;7.578;2023-02-01T02:13:16;96169.91;;;-1.73;51.02
77871;BME280;67067;46.850;7.578;2023-02-01T02:14:24;96173.47;;;-1.74;50.88
77871;BME280;67067;46.850;7.578;2023-02-01T02:15:28;96166.13;;;-1.78;50.70
77871;BME280;67067;46.850;7.578;2023-02-01T02:16:40;96168.88;;;-1.80;50.73
77871;BME280;67067;46.850;7.578;2023-02-01T02:23:27;96183.91;;;-2.02;51.01
77871;BME280;67067;46.850;7.578;2023-02-01T02:26:35;96179.84;;;-2.22;51.49
77871;BME280;67067;46.850;7.578;2023-02-01T02:29:26;96176.88;;;-2.28;51.67
77871;BME280;67067;46.850;7.578;2023-02-01T02:34:39;96166.63;;;-2.47;52.21
77871;BME280;67067;46.850;7.578;2023-02-01T02:35:48;96171.00;;;-2.48;52.34
77871;BME280;67067;46.850;7.578;2023-02-01T02:39:21;96170.19;;;-2.48;52.30
77871;BME280;67067;46.850;7.578;2023-02-01T02:40:32;96176.19;;;-2.48;52.22
77871;BME280;67067;46.850;7.578;2023-02-01T02:43:12;96176.19;;;-2.48;52.45
77871;BME280;67067;46.850;7.578;2023-02-01T02:44:40;96177.97;;;-2.48;52.28
77871;BME280;67067;46.850;7.578;2023-02-01T02:46:06;96174.84;;;-2.52;52.32
77871;BME280;67067;46.850;7.578;2023-02-01T02:47:56;96166.59;;;-2.65;52.57
77871;BME280;67067;46.850;7.578;2023-02-01T02:49:11;96175.84;;;-2.63;52.71
77871;BME280;67067;46.850;7.578;2023-02-01T02:50:23;96173.25;;;-2.63;52.54
77871;BME280;67067;46.850;7.578;2023-02-01T02:51:58;96175.56;;;-2.60;52.64
77871;BME280;67067;46.850;7.578;2023-02-01T02:53:27;96174.00;;;-2.71;52.99
77871;BME280;67067;46.850;7.578;2023-02-01T02:54:50;96180.13;;;-2.72;53.09
77871;BME280;67067;46.850;7.578;2023-02-01T02:55:55;96182.44;;;-2.68;52.90
77871;BME280;67067;46.850;7.578;2023-02-01T02:57:29;96190.22;;;-2.68;52.77
77871;BME280;67067;46.850;7.578;2023-02-01T02:58:51;96187.09;;;-2.72;53.01
77871;BME280;67067;46.850;7.578;2023-02-01T03:00:12;96189.00;;;-2.74;53.34
77871;BME280;67067;46.850;7.578;2023-02-01T03:01:34;96194.34;;;-2.76;53.26
77871;BME280;67067;46.850;7.578;2023-02-01T03:02:53;96194.19;;;-2.74;53.16
77871;BME280;67067;46.850;7.578;2023-02-01T03:04:14;96193.22;;;-2.73;53.20
77871;BME280;67067;46.850;7.578;2023-02-01T03:05:19;96195.41;;;-2.68;53.17
77871;BME280;67067;46.850;7.578;2023-02-01T03:06:22;96197.53;;;-2.64;53.03
77871;BME280;67067;46.850;7.578;2023-02-01T03:08:02;96185.53;;;-2.65;52.74
77871;BME280;67067;46.850;7.578;2023-02-01T03:09:08;96197.25;;;-2.61;52.68
77871;BME280;67067;46.850;7.578;2023-02-01T03:10:24;96200.13;;;-2.64;52.45
77871;BME280;67067;46.850;7.578;2023-02-01T03:11:28;96199.03;;;-2.61;52.49
77871;BME280;67067;46.850;7.578;2023-02-01T03:12:52;96205.59;;;-2.67;52.60
77871;BME280;67067;46.850;7.578;2023-02-01T03:14:02;96202.34;;;-2.69;52.63
77871;BME280;67067;46.850;7.578;2023-02-01T03:15:10;96208.19;;;-2.67;52.65
77871;BME280;67067;46.850;7.578;2023-02-01T03:16:23;96199.47;;;-2.66;52.40
77871;BME280;67067;46.850;7.578;2023-02-01T03:17:33;96201.09;;;-2.65;52.47
77871;BME280;67067;46.850;7.578;2023-02-01T03:19:59;96206.56;;;-2.68;52.39
77871;BME280;67067;46.850;7.578;2023-02-01T03:21:08;96201.38;;;-2.68;52.38
77871;BME280;67067;46.850;7.578;2023-02-01T03:22:13;96202.22;;;-2.67;52.33
77871;BME280;67067;46.850;7.578;2023-02-01T03:23:20;96204.66;;;-2.66;52.33
77871;BME280;67067;46.850;7.578;2023-02-01T03:24:30;96206.56;;;-2.68;52.13
77871;BME280;67067;46.850;7.578;2023-02-01T03:25:36;96198.78;;;-2.68;52.09
77871;BME280;67067;46.850;7.578;2023-02-01T03:26:39;96199.75;;;-2.69;52.04
77871;BME280;67067;46.850;7.578;2023-02-01T03:27:52;96195.16;;;-2.75;52.12
77871;BME280;67067;46.850;7.578;2023-02-01T03:28:59;96191.59;;;-2.74;52.30
77871;BME280;67067;46.850;7.578;2023-02-01T03:30:12;96195.97;;;-2.75;52.27
77871;BME280;67067;46.850;7.578;2023-02-01T03:31:16;96197.34;;;-2.80;52.25
77871;BME280;67067;46.850;7.578;2023-02-01T03:32:17;96200.91;;;-2.81;52.44
77871;BME280;67067;46.850;7.578;2023-02-01T03:33:23;96204.47;;;-2.82;52.30
77871;BME280;67067;46.850;7.578;2023-02-01T03:34:25;96205.13;;;-2.80;52.49
77871;BME280;67067;46.850;7.578;2023-02-01T03:36:31;96208.00;;;-2.83;52.20
77871;BME280;67067;46.850;7.578;2023-02-01T03:37:36;96202.69;;;-2.82;52.15
77871;BME280;67067;46.850;7.578;2023-02-01T03:40:01;96197.94;;;-2.96;52.49
77871;BME280;67067;46.850;7.578;2023-02-01T03:41:18;96206.69;;;-2.97;52.50
77871;BME280;67067;46.850;7.578;2023-02-01T03:42:27;96209.38;;;-2.89;52.53
77871;BME280;67067;46.850;7.578;2023-02-01T03:43:40;96208.56;;;-2.90;52.50
77871;BME280;67067;46.850;7.578;2023-02-01T03:46:08;96212.25;;;-2.92;52.51
77871;BME280;67067;46.850;7.578;2023-02-01T03:47:16;96218.28;;;-2.92;52.60
77871;BME280;67067;46.850;7.578;2023-02-01T03:48:22;96211.06;;;-2.98;52.76
77871;BME280;67067;46.850;7.578;2023-02-01T03:49:31;96212.97;;;-3.00;53.11
77871;BME280;67067;46.850;7.578;2023-02-01T03:50:38;96207.94;;;-3.02;53.36
77871;BME280;67067;46.850;7.578;2023-02-01T03:51:41;96208.59;;;-3.00;53.29
77871;BME280;67067;46.850;7.578;2023-02-01T03:53:06;96209.03;;;-3.04;52.87
77871;BME280;67067;46.850;7.578;2023-02-01T03:54:13;96203.81;;;-2.94;53.04
77871;BME280;67067;46.850;7.578;2023-02-01T03:55:17;96202.84;;;-2.93;52.97
77871;BME280;67067;46.850;7.578;2023-02-01T03:56:21;96204.47;;;-2.92;53.00
77871;BME280;67067;46.850;7.578;2023-02-01T03:57:28;96206.94;;;-2.91;52.88
77871;BME280;67067;46.850;7.578;2023-02-01T03:58:30;96207.47;;;-2.87;52.88
77871;BME280;67067;46.850;7.578;2023-02-01T03:59:30;96207.34;;;-2.86;53.17
77871;BME280;67067;46.850;7.578;2023-02-01T04:00:31;96204.75;;;-2.86;52.94
77871;BME280;67067;46.850;7.578;2023-02-01T04:01:32;96206.38;;;-2.84;52.88
77871;BME280;67067;46.850;7.578;2023-02-01T04:02:33;96201.19;;;-2.84;52.76
77871;BME280;67067;46.850;7.578;2023-02-01T04:03:33;96203.09;;;-2.87;52.73
77871;BME280;67067;46.850;7.578;2023-02-01T04:04:34;96199.84;;;-2.89;52.92
77871;BME280;67067;46.850;7.578;2023-02-01T04:05:35;96208.00;;;-2.83;52.96
77871;BME280;67067;46.850;7.578;2023-02-01T04:06:39;96204.47;;;-2.82;52.72
77871;BME280;67067;46.850;7.578;2023-02-01T04:07:42;96200.38;;;-2.85;52.71
77871;BME280;67067;46.850;7.578;2023-02-01T04:08:43;96194.09;;;-2.82;52.74
77871;BME280;67067;46.850;7.578;2023-02-01T04:09:43;96197.25;;;-2.89;52.89
77871;BME280;67067;46.850;7.578;2023-02-01T04:10:44;96187.59;;;-2.96;53.14
77871;BME280;67067;46.850;7.578;2023-02-01T04:11:46;96192.09;;;-2.98;53.28
77871;BME280;67067;46.850;7.578;2023-02-01T04:12:47;96190.34;;;-2.98;53.28
77871;BME280;67067;46.850;7.578;2023-02-01T04:13:47;96190.06;;;-2.95;53.17
77871;BME280;67067;46.850;7.578;2023-02-01T04:14:48;96191.69;;;-2.94;53.00
77871;BME280;67067;46.850;7.578;2023-02-01T04:15:51;96193.69;;;-2.88;53.09
77871;BME280;67067;46.850;7.578;2023-02-01T04:16:52;96195.47;;;-2.88;52.86
77871;BME280;67067;46.850;7.578;2023-02-01T04:17:52;96190.16;;;-2.87;52.91
77871;BME280;67067;46.850;7.578;2023-02-01T04:18:53;96189.19;;;-2.86;52.81
77871;BME280;67067;46.850;7.578;2023-02-01T04:19:53;96189.75;;;-2.82;52.77
77871;BME280;67067;46.850;7.578;2023-02-01T04:20:54;96193.97;;;-2.81;52.66
77871;BME280;67067;46.850;7.578;2023-02-01T04:21:54;96186.31;;;-2.82;52.62
77871;BME280;67067;46.850;7.578;2023-02-01T04:22:55;96197.63;;;-2.83;52.34
77871;BME280;67067;46.850;7.578;2023-02-01T04:23:55;96197.63;;;-2.83;52.34
77871;BME280;67067;46.850;7.578;2023-02-01T04:24:56;96193.53;;;-2.86;52.25
77871;BME280;67067;46.850;7.578;2023-02-01T04:26:04;96190.56;;;-2.91;52.30
77871;BME280;67067;46.850;7.578;2023-02-01T04:27:04;96187.69;;;-2.88;52.27
77871;BME280;67067;46.850;7.578;2023-02-01T04:28:05;96188.81;;;-2.91;52.39
77871;BME280;67067;46.850;7.578;2023-02-01T04:29:07;96184.22;;;-3.07;52.44
77871;BME280;67067;46.850;7.578;2023-02-01T04:30:09;96187.75;;;-2.98;52.42
77871;BME280;67067;46.850;7.578;2023-02-01T04:31:10;96182.69;;;-3.00;52.38
77871;BME280;67067;46.850;7.578;2023-02-01T04:32:10;96181.88;;;-3.00;52.45
77871;BME280;67067;46.850;7.578;2023-02-01T04:33:14;96188.84;;;-3.01;52.28
77871;BME280;67067;46.850;7.578;2023-02-01T04:34:15;96186.41;;;-3.02;52.06
77871;BME280;67067;46.850;7.578;2023-02-01T04:35:16;96194.16;;;-3.02;52.30
77871;BME280;67067;46.850;7.578;2023-02-01T04:36:18;96196.88;;;-3.04;52.18
77871;BME280;67067;46.850;7.578;2023-02-01T04:37:22;96194.47;;;-3.05;52.18
77871;BME280;67067;46.850;7.578;2023-02-01T04:38:25;96203.19;;;-3.06;52.31
77871;BME280;67067;46.850;7.578;2023-02-01T04:39:28;96205.09;;;-3.08;52.23
77871;BME280;67067;46.850;7.578;2023-02-01T04:40:29;96204.44;;;-3.10;52.30
77871;BME280;67067;46.850;7.578;2023-02-01T04:41:29;96197.91;;;-3.15;52.21
77871;BME280;67067;46.850;7.578;2023-02-01T04:42:30;96207.31;;;-3.13;52.34
77871;BME280;67067;46.850;7.578;2023-02-01T04:43:30;96206.75;;;-3.17;52.42
77871;BME280;67067;46.850;7.578;2023-02-01T04:44:31;96210.19;;;-3.17;52.78
77871;BME280;67067;46.850;7.578;2023-02-01T04:45:31;96213.72;;;-3.18;52.51
77871;BME280;67067;46.850;7.578;2023-02-01T04:46:32;96217.28;;;-3.19;52.45
77871;BME280;67067;46.850;7.578;2023-02-01T04:47:32;96203.50;;;-3.19;52.67
77871;BME280;67067;46.850;7.578;2023-02-01T04:48:33;96218.19;;;-3.20;52.62
77871;BME280;67067;46.850;7.578;2023-02-01T04:49:33;96222.56;;;-3.20;52.72
77871;BME280;67067;46.850;7.578;2023-02-01T04:50:34;96220.78;;;-3.20;52.73
77871;BME280;67067;46.850;7.578;2023-02-01T04:51:34;96216.44;;;-3.19;52.73
77871;BME280;67067;46.850;7.578;2023-02-01T04:52:36;96212.09;;;-3.19;52.71
77871;BME280;67067;46.850;7.578;2023-02-01T04:53:36;96210.31;;;-3.18;52.72
77871;BME280;67067;46.850;7.578;2023-02-01T04:54:37;96212.09;;;-3.19;52.67
77871;BME280;67067;46.850;7.578;2023-02-01T04:55:40;96215.34;;;-3.17;52.93
77871;BME280;67067;46.850;7.578;2023-02-01T04:56:41;96216.84;;;-3.14;52.75
77871;BME280;67067;46.850;7.578;2023-02-01T04:57:41;96213.56;;;-3.16;52.53
77871;BME280;67067;46.850;7.578;2023-02-01T04:58:42;96205.94;;;-3.18;52.63
77871;BME280;67067;46.850;7.578;2023-02-01T04:59:42;96210.31;;;-3.18;52.69
77871;BME280;67067;46.850;7.578;2023-02-01T05:00:43;96213.00;;;-3.20;52.88
77871;BME280;67067;46.850;7.578;2023-02-01T05:01:43;96214.69;;;-3.19;52.79
77871;BME280;67067;46.850;7.578;2023-02-01T05:02:44;96220.94;;;-3.21;52.77
77871;BME280;67067;46.850;7.578;2023-02-01T05:03:44;96223.38;;;-3.20;52.65
77871;BME280;67067;46.850;7.578;2023-02-01T05:04:48;96225.28;;;-3.22;52.50
77871;BME280;67067;46.850;7.578;2023-02-01T05:05:48;96220.94;;;-3.21;52.64
77871;BME280;67067;46.850;7.578;2023-02-01T05:06:49;96226.13;;;-3.21;52.70
77871;BME280;67067;46.850;7.578;2023-02-01T05:07:50;96226.00;;;-3.30;52.87
77871;BME280;67067;46.850;7.578;2023-02-01T05:08:50;96228.31;;;-3.26;52.66
77871;BME280;67067;46.850;7.578;2023-02-01T05:09:53;96219.88;;;-3.28;52.58
77871;BME280;67067;46.850;7.578;2023-02-01T05:10:54;96221.22;;;-3.34;52.52
77871;BME280;67067;46.850;7.578;2023-02-01T05:11:56;96216.06;;;-3.34;52.48
77871;BME280;67067;46.850;7.578;2023-02-01T05:13:18;96227.69;;;-3.48;52.80
77871;BME280;67067;46.850;7.578;2023-02-01T05:14:37;96232.19;;;-3.60;53.18
77871;BME280;67067;46.850;7.578;2023-02-01T05:15:38;96230.53;;;-3.61;53.48
77871;BME280;67067;46.850;7.578;2023-02-01T05:16:38;96232.19;;;-3.60;53.32
77871;BME280;67067;46.850;7.578;2023-02-01T05:17:42;96228.19;;;-3.54;53.24
77871;BME280;67067;46.850;7.578;2023-02-01T05:18:42;96236.41;;;-3.49;53.36
77871;BME280;67067;46.850;7.578;2023-02-01T05:19:43;96236.25;;;-3.48;53.23
77871;BME280;67067;46.850;7.578;2023-02-01T05:20:43;96244.41;;;-3.42;53.13
77871;BME280;67067;46.850;7.578;2023-02-01T05:21:48;96251.09;;;-3.40;53.01
77871;BME280;67067;46.850;7.578;2023-02-01T05:22:48;96252.47;;;-3.36;52.92
77871;BME280;67067;46.850;7.578;2023-02-01T05:23:48;96250.66;;;-3.35;52.96
77871;BME280;67067;46.850;7.578;2023-02-01T05:25:08;96251.34;;;-3.33;52.78
77871;BME280;67067;46.850;7.578;2023-02-01T05:26:08;96249.03;;;-3.36;52.94
77871;BME280;67067;46.850;7.578;2023-02-01T05:27:11;96257.63;;;-3.36;52.81
77871;BME280;67067;46.850;7.578;2023-02-01T05:28:12;96257.22;;;-3.31;52.83
77871;BME280;67067;46.850;7.578;2023-02-01T05:29:13;96253.94;;;-3.33;52.90
77871;BME280;67067;46.850;7.578;2023-02-01T05:30:14;96259.28;;;-3.35;53.02
77871;BME280;67067;46.850;7.578;2023-02-01T05:31:41;96263.91;;;-3.48;53.17
77871;BME280;67067;46.850;7.578;2023-02-01T05:32:42;96259.00;;;-3.41;53.19
77871;BME280;67067;46.850;7.578;2023-02-01T05:33:42;96260.34;;;-3.37;53.26
77871;BME280;67067;46.850;7.578;2023-02-01T05:34:45;96261.03;;;-3.35;52.82
77871;BME280;67067;46.850;7.578;2023-02-01T05:35:48;96254.91;;;-3.34;53.05
77871;BME280;67067;46.850;7.578;2023-02-01T05:36:48;96259.13;;;-3.33;52.98
77871;BME280;67067;46.850;7.578;2023-02-01T05:37:51;96255.28;;;-3.29;53.11
77871;BME280;67067;46.850;7.578;2023-02-01T05:38:51;96265.66;;;-3.29;53.29
77871;BME280;67067;46.850;7.578;2023-02-01T05:39:52;96267.00;;;-3.25;53.01
77871;BME280;67067;46.850;7.578;2023-02-01T05:40:53;96263.19;;;-3.21;53.00
77871;BME280;67067;46.850;7.578;2023-02-01T05:41:55;96273.81;;;-3.14;52.78
77871;BME280;67067;46.850;7.578;2023-02-01T05:42:58;96270.28;;;-3.13;52.77
77871;BME280;67067;46.850;7.578;2023-02-01T05:43:58;96281.47;;;-3.12;52.93
77871;BME280;67067;46.850;7.578;2023-02-01T05:44:59;96285.25;;;-3.07;52.81
77871;BME280;67067;46.850;7.578;2023-02-01T05:45:59;96285.13;;;-3.05;52.76
77871;BME280;67067;46.850;7.578;2023-02-01T05:47:02;96280.63;;;-3.03;52.72
77871;BME280;67067;46.850;7.578;2023-02-01T05:48:03;96280.75;;;-3.05;52.71
77871;BME280;67067;46.850;7.578;2023-02-01T05:49:05;96288.13;;;-3.00;52.81
77871;BME280;67067;46.850;7.578;2023-02-01T05:50:06;96283.75;;;-3.00;52.57
77871;BME280;67067;46.850;7.578;2023-02-01T05:51:08;96284.97;;;-2.94;52.73
77871;BME280;67067;46.850;7.578;2023-02-01T05:52:08;96296.00;;;-3.02;53.02
77871;BME280;67067;46.850;7.578;2023-02-01T05:53:09;96288.91;;;-2.90;52.65
77871;BME280;67067;46.850;7.578;2023-02-01T05:54:09;96285.75;;;-2.83;52.53
77871;BME280;67067;46.850;7.578;2023-02-01T05:55:10;96292.97;;;-2.77;52.62
77871;BME280;67067;46.850;7.578;2023-02-01T05:56:11;96287.50;;;-2.74;52.40
77871;BME280;67067;46.850;7.578;2023-02-01T05:57:11;96291.16;;;-2.67;52.53
77871;BME280;67067;46.850;7.578;2023-02-01T05:58:16;96279.53;;;-2.63;52.51
77871;BME280;67067;46.850;7.578;2023-02-01T05:59:19;96271.75;;;-2.63;52.44
77871;BME280;67067;46.850;7.578;2023-02-01T06:00:20;96275.31;;;-2.64;52.53
77871;BME280;67067;46.850;7.578;2023-02-01T06:01:21;96267.91;;;-2.59;52.42
77871;BME280;67067;46.850;7.578;2023-02-01T06:02:21;96269.81;;;-2.51;52.14
77871;BME280;67067;46.850;7.578;2023-02-01T06:03:24;96277.50;;;-2.59;52.36